Time;durP1;ratioP1;P1;durP2;ratioP2;P2;SDS_P1;SDS_P2;PMS_P1;PMS_P2;Temp;Humidity;BMP_temperature;BMP_pressure;BME280_temperature;BME280_humidity;BME280_pressure;Samples;Min_cycle;Max_cycle;Signal;HPM_P1;HPM_P2
2023/01/20 00:00:48;;;;;;;6.97;5.03;;;;;;;16.10;70.11;100988.47;4953679;28;20106;-86
2023/01/20 00:03:13;;;;;;;7.15;5.22;;;;;;;15.86;69.78;100950.78;4955273;28;20046;-85
2023/01/20 00:05:39;;;;;;;7.20;5.15;;;;;;;15.64;70.47;100909.59;4973650;28;20937;-85
2023/01/20 00:08:05;;;;;;;7.05;5.28;;;;;;;16.05;70.46;100985.69;4973934;28;20035;-84
2023/01/20 00:10:30;;;;;;;6.90;5.13;;;;;;;15.94;69.69;100971.22;4957121;28;20018;-85
2023/01/20 00:12:56;;;;;;;6.75;5.35;;;;;;;15.82;70.13;100940.09;4973304;28;20082;-84
2023/01/20 00:15:21;;;;;;;6.70;5.07;;;;;;;15.98;69.86;100970.47;4940449;28;20121;-85
2023/01/20 00:17:47;;;;;;;7.38;5.15;;;;;;;16.32;69.89;101011.19;4974359;28;20081;-85
2023/01/20 00:20:12;;;;;;;7.03;5.18;;;;;;;16.16;70.24;100984.31;4973969;28;20523;-85
2023/01/20 00:22:41;;;;;;;6.75;5.10;;;;;;;16.21;70.13;100995.91;4973179;28;20054;-86
2023/01/20 00:25:09;;;;;;;6.35;5.07;;;;;;;16.04;70.20;100962.78;4973359;28;20039;-86
2023/01/20 00:27:35;;;;;;;7.20;5.20;;;;;;;16.00;70.47;100951.28;4972276;28;20029;-86
2023/01/20 00:30:01;;;;;;;;;;;;;;;16.31;69.98;100996.22;4973288;28;20062;-85
2023/01/20 00:32:26;;;;;;;9.68;5.30;;;;;;;15.93;69.95;100940.47;4973306;28;20091;-86
2023/01/20 00:34:53;;;;;;;6.63;4.93;;;;;;;15.97;70.17;100939.72;4956195;28;20386;-86
2023/01/20 00:37:18;;;;;;;7.32;5.35;;;;;;;15.87;69.83;100928.88;4972695;28;20030;-85
2023/01/20 00:39:44;;;;;;;5.55;5.00;;;;;;;16.12;69.86;100965.72;4972746;28;20065;-86
2023/01/20 00:42:09;;;;;;;6.88;5.25;;;;;;;15.98;70.19;100930.97;4972580;28;20050;-85
2023/01/20 00:44:35;;;;;;;7.22;5.22;;;;;;;16.06;70.03;100950.56;4972354;28;20030;-85
2023/01/20 00:47:01;;;;;;;6.53;5.28;;;;;;;15.80;70.19;100894.38;4972462;28;20039;-85
2023/01/20 00:49:26;;;;;;;7.13;5.00;;;;;;;16.26;69.71;100969.72;4954807;28;20062;-85
2023/01/20 00:51:52;;;;;;;7.25;5.45;;;;;;;15.97;69.98;100911.66;4968236;28;20035;-85
2023/01/20 00:54:18;;;;;;;6.82;5.55;;;;;;;16.21;69.51;100953.75;4966405;28;20046;-85
2023/01/20 00:56:43;;;;;;;7.90;5.68;;;;;;;16.19;69.54;100944.00;4967031;28;20049;-86
2023/01/20 00:59:09;;;;;;;6.82;5.38;;;;;;;16.16;70.29;100936.00;4966724;28;20029;-86
2023/01/20 01:01:35;;;;;;;5.68;5.00;;;;;;;16.05;70.49;100925.09;4970231;28;20023;-86
2023/01/20 01:04:00;;;;;;;6.53;4.80;;;;;;;16.13;70.29;100938.50;4969651;28;20448;-86
2023/01/20 01:06:26;;;;;;;6.32;4.63;;;;;;;15.94;69.79;100906.28;4970507;28;20027;-86
2023/01/20 01:08:51;;;;;;;6.43;5.22;;;;;;;16.13;69.78;100942.06;4967480;28;20058;-86
2023/01/20 01:11:17;;;;;;;6.35;5.25;;;;;;;16.25;70.28;100962.66;4963013;28;20591;-86
2023/01/20 01:13:43;;;;;;;7.13;5.20;;;;;;;15.85;69.95;100882.25;4970388;28;20436;-86
2023/01/20 01:16:13;;;;;;;7.68;5.47;;;;;;;15.96;70.15;100904.59;4967797;28;20105;-86
2023/01/20 01:18:39;;;;;;;6.68;5.50;;;;;;;16.24;69.45;100952.97;4954750;28;20034;-86
2023/01/20 01:21:10;;;;;;;6.03;4.93;;;;;;;16.24;70.02;100951.22;4971922;28;20022;-86
2023/01/20 01:23:35;;;;;;;6.25;4.93;;;;;;;15.80;69.92;100871.56;4972069;28;20026;-86
2023/01/20 01:26:01;;;;;;;6.47;5.07;;;;;;;16.12;69.90;100918.28;4971320;28;20136;-87
2023/01/20 01:28:26;;;;;;;7.03;4.97;;;;;;;16.11;70.09;100914.75;4935520;28;20090;-85
2023/01/20 01:30:52;;;;;;;6.15;5.15;;;;;;;16.25;70.04;100941.56;4964077;28;20035;-86
2023/01/20 01:33:17;;;;;;;6.90;4.97;;;;;;;16.19;70.09;100944.00;4969407;28;20051;-85
2023/01/20 01:35:43;;;;;;;6.28;4.85;;;;;;;16.06;69.83;100911.97;4953256;28;20038;-85
2023/01/20 01:38:08;;;;;;;5.60;4.65;;;;;;;16.13;69.70;100920.97;4967757;28;20038;-85
2023/01/20 01:40:34;;;;;;;6.68;5.25;;;;;;;16.08;69.79;100910.25;4955286;28;20027;-85
2023/01/20 01:43:00;;;;;;;6.22;4.47;;;;;;;16.18;69.98;100926.41;4952993;28;20118;-85
2023/01/20 01:45:29;;;;;;;7.03;5.00;;;;;;;16.04;70.05;100903.13;4970763;28;20030;-85
2023/01/20 01:48:07;;;;;;;6.70;4.82;;;;;;;16.22;69.84;100931.81;4971263;28;20034;-86
2023/01/20 01:50:38;;;;;;;7.60;5.10;;;;;;;16.20;69.82;100922.97;4962300;28;20034;-86
2023/01/20 01:53:05;;;;;;;8.18;5.20;;;;;;;16.02;69.99;100899.56;4950743;28;20121;-87
2023/01/20 01:55:34;;;;;;;6.15;5.20;;;;;;;16.19;69.96;100925.53;4971089;28;20045;-86
2023/01/20 01:58:00;;;;;;;7.32;4.90;;;;;;;15.88;70.06;100863.94;4970684;28;20042;-86
2023/01/20 02:00:26;;;;;;;6.30;4.90;;;;;;;16.22;70.01;100918.66;4971175;28;20019;-86
2023/01/20 02:02:53;;;;;;;7.15;5.15;;;;;;;15.94;70.17;100877.31;4957556;28;20114;-87
2023/01/20 02:05:19;;;;;;;8.70;4.88;;;;;;;16.17;69.91;100916.69;4954486;28;20093;-86
2023/01/20 02:07:46;;;;;;;6.60;4.80;;;;;;;16.15;69.46;100919.28;4936975;29;20039;-86
2023/01/20 02:10:12;;;;;;;7.22;5.05;;;;;;;15.90;70.21;100869.28;4941262;28;20037;-87
2023/01/20 02:12:38;;;;;;;7.30;5.22;;;;;;;15.76;69.86;100838.06;4951584;28;20059;-86
2023/01/20 02:15:05;;;;;;;6.57;5.18;;;;;;;16.19;69.62;100912.38;4960031;28;20047;-86
2023/01/20 02:17:34;;;;;;;6.88;5.28;;;;;;;16.07;70.18;100897.06;4954221;28;20027;-86
2023/01/20 02:20:41;;;;;;;7.18;4.90;;;;;;;16.16;69.60;100912.28;4969229;28;20041;-85
2023/01/20 02:23:29;;;;;;;7.97;5.27;;;;;;;16.17;69.74;100901.81;4959045;28;20057;-86
2023/01/20 02:25:57;;;;;;;;;;;;;;;16.19;69.63;100904.47;4951950;28;20058;-85
2023/01/20 02:28:38;;;;;;;6.05;5.25;;;;;;;16.14;69.78;100901.69;4970359;28;20540;-85
2023/01/20 02:31:41;;;;;;;8.90;5.57;;;;;;;16.12;69.52;100895.47;4951610;28;20054;-85
2023/01/20 02:34:16;;;;;;;6.15;5.03;;;;;;;15.99;69.87;100874.84;4974043;28;20066;-85
2023/01/20 02:36:54;;;;;;;6.38;5.47;;;;;;;16.10;69.87;100891.88;4977294;28;20094;-85
2023/01/20 02:39:27;;;;;;;6.88;4.95;;;;;;;16.12;70.01;100897.22;4979493;28;20107;-84
2023/01/20 02:42:13;;;;;;;7.13;5.68;;;;;;;16.11;69.72;100888.41;4952051;28;20444;-84
2023/01/20 02:44:51;;;;;;;6.13;5.43;;;;;;;16.10;69.78;100898.91;4958593;28;20551;-84
2023/01/20 02:47:30;;;;;;;8.80;5.65;;;;;;;16.00;69.68;100871.34;4954049;28;20081;-86
2023/01/20 02:50:14;;;;;;;9.48;5.80;;;;;;;15.96;69.82;100857.19;4943377;28;20524;-86
2023/01/20 02:52:51;;;;;;;8.68;6.13;;;;;;;15.98;69.68;100859.84;4952814;28;20035;-86
2023/01/20 02:55:25;;;;;;;7.82;6.28;;;;;;;15.99;69.70;100862.56;4953335;28;20508;-86
2023/01/20 02:57:56;;;;;;;7.07;5.70;;;;;;;16.07;69.47;100873.34;4968504;28;20118;-87
2023/01/20 03:00:26;;;;;;;7.35;5.72;;;;;;;15.95;69.81;100851.88;4960239;28;20027;-87
2023/01/20 03:02:53;;;;;;;7.97;5.85;;;;;;;15.83;69.85;100836.53;4957037;28;20026;-87
2023/01/20 03:05:26;;;;;;;11.65;6.07;;;;;;;16.05;69.84;100870.66;4936791;28;20039;-86
2023/01/20 03:07:53;;;;;;;7.32;5.55;;;;;;;16.07;69.86;100878.63;4956111;28;20111;-86
2023/01/20 03:10:21;;;;;;;8.43;5.78;;;;;;;15.66;69.60;100814.88;4957696;28;20547;-86
2023/01/20 03:12:56;;;;;;;7.97;5.97;;;;;;;15.81;69.86;100843.50;4956990;28;20077;-86
2023/01/20 03:15:30;;;;;;;10.70;6.70;;;;;;;15.83;69.60;100850.63;4972713;28;20069;-86
2023/01/20 03:17:56;;;;;;;8.45;5.97;;;;;;;16.04;69.77;100889.97;4956012;28;20042;-86
2023/01/20 03:20:22;;;;;;;;;;;;;;;16.06;69.54;100888.28;4968414;28;20078;-86
2023/01/20 03:22:48;;;;;;;7.57;5.97;;;;;;;15.74;69.62;100830.97;4973713;28;19926;-86
2023/01/20 03:25:13;;;;;;;;;;;;;;;16.04;69.75;100887.31;4954623;28;20469;-86
2023/01/20 03:27:40;;;;;;;8.15;5.70;;;;;;;15.94;69.55;100871.13;4955545;28;19918;-86
2023/01/20 03:30:12;;;;;;;7.43;5.93;;;;;;;15.61;70.09;100814.72;4974236;28;20416;-86
2023/01/20 03:32:37;;;;;;;11.02;6.53;;;;;;;15.72;70.09;100833.53;4973934;28;20041;-86
2023/01/20 03:35:03;;;;;;;6.68;5.85;;;;;;;15.96;69.92;100864.19;4956649;28;20039;-86
2023/01/20 03:37:29;;;;;;;7.10;5.88;;;;;;;15.97;70.17;100863.34;4955528;28;20054;-86
2023/01/20 03:39:55;;;;;;;8.00;6.50;;;;;;;15.97;69.94;100861.59;4955865;28;20482;-86
2023/01/20 03:42:29;;;;;;;8.30;6.70;;;;;;;15.87;69.85;100844.63;4956657;28;20034;-86
2023/01/20 03:45:07;;;;;;;8.63;6.28;;;;;;;15.98;70.25;100860.78;4971949;28;20031;-86
2023/01/20 03:47:53;;;;;;;9.43;6.50;;;;;;;15.96;69.80;100862.47;4961343;28;20468;-86
2023/01/20 03:50:25;;;;;;;11.83;7.10;;;;;;;15.98;70.00;100857.22;4966167;28;20109;-86
2023/01/20 03:53:07;;;;;;;10.40;6.97;;;;;;;15.84;69.82;100848.88;4970806;28;20294;-87
2023/01/20 03:55:49;;;;;;;9.35;6.93;;;;;;;15.70;70.06;100823.78;4957311;28;20023;-85
2023/01/20 03:58:26;;;;;;;11.13;7.57;;;;;;;15.79;69.96;100845.16;4954982;28;20492;-86
2023/01/20 04:00:52;;;;;;;8.25;6.85;;;;;;;15.93;69.73;100872.00;4964816;28;20044;-86
2023/01/20 04:03:20;;;;;;;8.32;6.15;;;;;;;15.74;69.81;100841.50;4971642;28;20408;-86
2023/01/20 04:05:46;;;;;;;11.43;6.85;;;;;;;15.76;70.27;100848.59;4964579;28;20062;-85
2023/01/20 04:08:12;;;;;;;;;;;;;;;15.98;69.83;100884.47;4968678;28;20034;-86
2023/01/20 04:10:40;;;;;;;12.52;6.93;;;;;;;15.99;69.89;100882.75;4951284;28;19918;-86
2023/01/20 04:13:06;;;;;;;9.80;6.93;;;;;;;15.97;69.99;100881.78;4953260;28;20110;-87
2023/01/20 04:15:35;;;;;;;8.75;6.75;;;;;;;15.88;70.09;100880.63;4950296;28;20580;-86
2023/01/20 04:18:15;;;;;;;11.75;6.57;;;;;;;15.68;69.62;100842.16;4953898;28;20042;-87
2023/01/20 04:20:42;;;;;;;10.98;6.82;;;;;;;15.78;70.43;100862.72;4952228;28;20074;-86
2023/01/20 04:23:13;;;;;;;9.93;6.45;;;;;;;15.86;69.93;100889.31;4968521;28;20114;-85
2023/01/20 04:25:38;;;;;;;12.02;7.22;;;;;;;15.61;70.02;100851.56;4952194;28;20035;-86
2023/01/20 04:28:04;;;;;;;9.25;6.40;;;;;;;15.70;70.10;100864.16;4946280;28;20034;-86
2023/01/20 04:30:29;;;;;;;9.68;7.38;;;;;;;15.67;70.16;100875.47;4961987;28;20027;-86
2023/01/20 04:32:55;;;;;;;9.73;7.20;;;;;;;15.80;70.26;100879.47;4968676;28;20051;-85
2023/01/20 04:35:20;;;;;;;8.65;6.50;;;;;;;15.81;70.20;100890.88;4954097;28;20039;-86
2023/01/20 04:37:46;;;;;;;9.32;6.82;;;;;;;15.81;69.75;100902.34;4953022;28;20031;-86
2023/01/20 04:40:12;;;;;;;9.68;6.95;;;;;;;15.94;70.56;100913.28;4952091;28;20042;-85
2023/01/20 04:42:38;;;;;;;9.82;6.75;;;;;;;15.66;70.01;100867.53;4969252;28;20051;-85
2023/01/20 04:45:04;;;;;;;9.38;7.18;;;;;;;15.60;70.03;100869.94;4954174;28;20390;-85
2023/01/20 04:47:30;;;;;;;8.73;6.38;;;;;;;15.88;70.30;100920.13;4952581;28;20031;-85
2023/01/20 04:49:56;;;;;;;8.40;6.90;;;;;;;15.56;69.79;100858.44;4952433;28;20497;-84
2023/01/20 04:52:21;;;;;;;9.18;6.72;;;;;;;15.81;70.32;100907.59;4969089;28;20038;-84
2023/01/20 04:54:47;;;;;;;9.57;6.80;;;;;;;15.68;70.15;100882.56;4961896;28;20031;-84
2023/01/20 04:57:12;;;;;;;8.05;6.68;;;;;;;15.46;70.11;100843.16;4953352;28;20031;-85
2023/01/20 04:59:38;;;;;;;10.38;7.15;;;;;;;15.63;69.99;100856.91;4969018;28;20130;-85
2023/01/20 05:02:03;;;;;;;13.50;7.50;;;;;;;15.80;69.93;100882.09;4953728;28;20023;-85
2023/01/20 05:04:29;;;;;;;10.55;6.97;;;;;;;15.79;69.69;100890.84;4952376;28;20485;-85
2023/01/20 05:06:55;;;;;;;9.65;6.85;;;;;;;15.85;70.20;100903.31;4953611;28;20518;-85
2023/01/20 05:09:20;;;;;;;10.45;7.55;;;;;;;15.65;69.93;100873.63;4953487;28;20046;-84
2023/01/20 05:11:46;;;;;;;10.10;7.63;;;;;;;15.67;70.18;100877.22;4958671;28;20425;-85
2023/01/20 05:14:12;;;;;;;9.75;7.70;;;;;;;15.79;69.86;100898.75;4973010;28;20030;-85
2023/01/20 05:16:38;;;;;;;9.68;7.65;;;;;;;15.85;70.24;100906.88;4971690;28;20034;-85
2023/01/20 05:19:03;;;;;;;10.00;7.57;;;;;;;15.71;70.04;100886.13;4957825;28;20670;-85
2023/01/20 05:21:29;;;;;;;10.93;7.38;;;;;;;15.84;70.11;100905.06;4966671;28;20023;-85
2023/01/20 05:23:56;;;;;;;10.55;7.30;;;;;;;15.34;70.26;100827.81;4972978;28;20041;-85
2023/01/20 05:26:22;;;;;;;9.68;7.57;;;;;;;15.70;70.15;100893.13;4970821;28;20412;-85
2023/01/20 05:28:48;;;;;;;12.23;8.52;;;;;;;15.71;69.96;100896.66;4971274;28;20042;-85
2023/01/20 05:31:13;;;;;;;11.60;7.28;;;;;;;15.47;69.90;100860.72;4955170;28;20026;-85
2023/01/20 05:33:39;;;;;;;11.13;7.68;;;;;;;15.63;69.98;100884.13;4955553;28;20049;-86
2023/01/20 05:36:05;;;;;;;9.90;7.55;;;;;;;15.54;70.00;100867.13;4972118;28;20041;-86
2023/01/20 05:38:31;;;;;;;11.50;7.72;;;;;;;15.70;69.97;100893.13;4970568;28;20035;-86
2023/01/20 05:41:05;;;;;;;9.85;7.68;;;;;;;15.61;70.28;100875.25;4971133;28;20015;-84
2023/01/20 05:43:31;;;;;;;10.68;7.85;;;;;;;15.68;69.94;100889.53;4965721;28;20049;-84
2023/01/20 05:45:57;;;;;;;10.68;8.15;;;;;;;15.64;69.74;100885.00;4971961;28;20604;-84
2023/01/20 05:48:23;;;;;;;10.10;7.82;;;;;;;15.54;69.70;100867.13;4954047;28;20512;-84
2023/01/20 05:50:49;;;;;;;10.30;8.00;;;;;;;15.70;69.79;100890.47;4960936;28;20051;-84
2023/01/20 05:53:14;;;;;;;10.07;7.28;;;;;;;15.78;69.97;100910.13;4954001;28;20420;-84
2023/01/20 05:55:40;;;;;;;10.10;7.35;;;;;;;15.72;70.15;100899.38;4971256;28;20031;-84
2023/01/20 05:58:06;;;;;;;10.65;7.70;;;;;;;15.79;69.94;100913.63;4954751;28;20039;-82
2023/01/20 06:00:32;;;;;;;10.52;7.63;;;;;;;15.65;69.97;100886.81;4972208;28;20011;-84
2023/01/20 06:02:58;;;;;;;12.27;7.50;;;;;;;15.64;70.22;100883.28;4953690;28;20039;-84
2023/01/20 06:05:23;;;;;;;10.80;7.75;;;;;;;15.79;69.90;100919.81;4954655;28;20087;-85
2023/01/20 06:07:56;;;;;;;13.75;8.07;;;;;;;15.54;70.10;100880.28;4955853;28;20402;-84
2023/01/20 06:10:26;;;;;;;10.63;8.10;;;;;;;15.78;69.91;100919.75;4952768;28;20118;-85
2023/01/20 06:12:53;;;;;;;11.27;7.57;;;;;;;15.79;70.41;100919.81;4942564;28;20576;-85
2023/01/20 06:15:19;;;;;;;12.18;7.82;;;;;;;15.37;69.86;100856.00;4950980;28;20027;-85
2023/01/20 06:17:45;;;;;;;10.43;7.85;;;;;;;15.79;70.10;100926.81;4949802;28;20045;-85
2023/01/20 06:20:11;;;;;;;9.90;7.65;;;;;;;15.50;70.18;100879.25;4951012;28;20490;-84
2023/01/20 06:22:37;;;;;;;11.25;7.68;;;;;;;15.62;70.33;100899.84;4966285;28;20556;-83
2023/01/20 06:25:03;;;;;;;9.70;7.57;;;;;;;15.43;69.46;100872.88;4950560;28;20045;-85
2023/01/20 06:27:28;;;;;;;11.20;7.60;;;;;;;15.31;70.20;100848.75;4950657;28;20035;-85
2023/01/20 06:29:54;;;;;;;9.48;7.28;;;;;;;15.62;70.11;100898.13;4947895;28;20098;-83
2023/01/20 06:32:20;;;;;;;15.02;8.20;;;;;;;15.62;70.43;100910.38;4951390;28;20031;-84
2023/01/20 06:34:46;;;;;;;23.23;9.40;;;;;;;15.53;69.39;100894.25;4958349;28;20047;-84
2023/01/20 06:37:11;;;;;;;17.30;8.85;;;;;;;15.43;69.34;100864.06;4949770;28;20543;-85
2023/01/20 06:39:37;;;;;;;9.35;7.30;;;;;;;15.49;69.40;100874.81;4966426;28;20510;-84
2023/01/20 06:42:03;;;;;;;13.90;8.18;;;;;;;15.38;69.59;100857.75;4950678;28;20031;-85
2023/01/20 06:44:29;;;;;;;15.48;7.47;;;;;;;15.30;69.52;100844.31;4951523;28;20058;-85
2023/01/20 06:46:56;;;;;;;16.98;8.45;;;;;;;15.52;69.33;100876.69;4952478;28;20057;-84
2023/01/20 06:49:22;;;;;;;10.95;7.63;;;;;;;15.46;69.80;100872.09;4949468;28;20055;-85
2023/01/20 06:51:48;;;;;;;11.70;8.23;;;;;;;15.72;70.02;100927.44;4951393;28;20023;-85
2023/01/20 06:54:14;;;;;;;12.40;8.13;;;;;;;15.68;69.79;100910.59;4952270;28;20493;-85
2023/01/20 06:56:40;;;;;;;12.90;8.68;;;;;;;15.32;69.86;100847.00;4951303;28;20493;-85
2023/01/20 06:59:05;;;;;;;14.57;8.07;;;;;;;15.41;69.81;100853.50;4965196;28;20046;-85
2023/01/20 07:01:31;;;;;;;14.52;8.15;;;;;;;15.41;69.58;100855.25;4950738;28;20038;-86
2023/01/20 07:03:57;;;;;;;11.80;7.72;;;;;;;15.35;69.90;100834.00;4934310;29;20039;-85
2023/01/20 07:06:39;;;;;;;13.57;8.20;;;;;;;15.68;69.38;100900.97;4950851;28;20031;-86
2023/01/20 07:09:07;;;;;;;13.55;8.50;;;;;;;15.42;69.63;100843.88;4954269;28;20031;-86
2023/01/20 07:11:34;;;;;;;11.38;8.00;;;;;;;15.45;69.76;100855.41;4969138;28;20513;-86
2023/01/20 07:14:01;;;;;;;11.70;8.10;;;;;;;15.65;70.13;100887.69;4971226;28;20019;-86
2023/01/20 07:16:26;;;;;;;11.70;7.75;;;;;;;15.25;69.69;100833.63;4953115;28;20138;-86
2023/01/20 07:18:53;;;;;;;11.93;7.45;;;;;;;15.64;69.98;100892.91;4968972;28;20051;-85
2023/01/20 07:21:19;;;;;;;;;;;;;;;15.70;69.19;100902.75;4953768;28;20035;-86
2023/01/20 07:23:45;;;;;;;15.47;8.40;;;;;;;15.70;69.44;100910.66;4969066;28;19918;-86
2023/01/20 07:26:13;;;;;;;11.05;8.27;;;;;;;15.44;69.53;100868.50;4954249;28;20279;-86
2023/01/20 07:28:39;;;;;;;13.88;8.73;;;;;;;15.69;69.73;100901.88;4969184;28;20078;-86
2023/01/20 07:31:24;;;;;;;15.20;8.50;;;;;;;15.70;69.68;100894.84;4961560;28;20059;-85
2023/01/20 07:33:51;;;;;;;12.20;8.55;;;;;;;15.65;69.75;100892.06;4969116;28;20505;-86
2023/01/20 07:36:16;;;;;;;;;;;;;;;15.72;69.26;100899.38;4969909;28;20027;-86
2023/01/20 07:38:46;;;;;;;9.38;7.70;;;;;;;15.71;69.54;100900.19;4971390;28;19920;-85
2023/01/20 07:41:14;;;;;;;13.43;8.13;;;;;;;15.19;69.67;100822.00;4953116;28;20019;-85
2023/01/20 07:43:44;;;;;;;12.30;8.52;;;;;;;15.67;70.08;100903.56;4938403;28;20061;-85
2023/01/20 07:46:10;;;;;;;13.15;8.45;;;;;;;15.48;70.03;100878.31;4973834;28;20027;-85
2023/01/20 07:48:35;;;;;;;11.73;7.85;;;;;;;15.47;69.96;100872.16;4941907;28;20023;-85
2023/01/20 07:51:04;;;;;;;12.65;8.32;;;;;;;15.58;70.04;100887.44;4969313;28;20034;-85
2023/01/20 07:53:46;;;;;;;9.88;7.40;;;;;;;15.68;70.18;100908.88;4957185;28;20145;-85
2023/01/20 07:56:14;;;;;;;13.45;8.45;;;;;;;15.56;69.98;100881.22;4949289;28;20100;-85
2023/01/20 07:58:41;;;;;;;12.02;7.72;;;;;;;15.53;69.85;100875.84;4955731;28;20026;-84
2023/01/20 08:01:18;;;;;;;12.27;7.82;;;;;;;15.67;69.94;100899.16;4974006;28;20085;-84
2023/01/20 08:03:44;;;;;;;13.70;8.02;;;;;;;15.69;69.84;100896.59;4956925;28;20069;-84
2023/01/20 08:06:11;;;;;;;11.32;7.50;;;;;;;15.51;69.65;100859.09;4974344;28;20070;-84
2023/01/20 08:08:38;;;;;;;11.93;8.65;;;;;;;15.40;69.59;100837.66;4956994;28;20540;-85
2023/01/20 08:11:05;;;;;;;12.30;7.93;;;;;;;15.67;69.79;100893.03;4956509;28;20047;-84
2023/01/20 08:13:31;;;;;;;15.10;8.35;;;;;;;15.65;69.90;100892.06;4973614;28;20043;-84
2023/01/20 08:16:04;;;;;;;12.90;8.80;;;;;;;15.61;69.64;100877.00;4957089;28;20027;-84
2023/01/20 08:18:31;;;;;;;12.32;8.32;;;;;;;15.56;69.83;100876.84;4972325;28;20551;-84
2023/01/20 08:20:57;;;;;;;12.90;8.55;;;;;;;15.64;70.10;100883.28;4957123;28;20037;-85
2023/01/20 08:23:23;;;;;;;12.75;8.07;;;;;;;15.42;69.66;100850.03;4972174;28;20062;-84
2023/01/20 08:25:49;;;;;;;12.95;8.95;;;;;;;15.64;69.95;100879.72;4974093;28;20062;-84
2023/01/20 08:28:14;;;;;;;13.65;8.55;;;;;;;15.58;69.85;100872.53;4974087;28;20042;-85
2023/01/20 08:30:40;;;;;;;14.20;8.95;;;;;;;15.22;70.05;100816.88;4973911;28;20497;-84
2023/01/20 08:33:05;;;;;;;16.08;8.63;;;;;;;15.35;69.74;100834.00;4973330;28;20069;-84
2023/01/20 08:35:31;;;;;;;12.13;7.95;;;;;;;15.36;69.59;100841.91;4956080;28;20121;-84
2023/01/20 08:37:56;;;;;;;13.48;8.75;;;;;;;15.55;69.59;100875.03;4956899;28;20027;-84
2023/01/20 08:40:22;;;;;;;13.77;8.52;;;;;;;15.65;69.79;100886.81;4956432;28;20027;-84
2023/01/20 08:42:47;;;;;;;13.35;8.40;;;;;;;15.32;69.65;100826.84;4972740;28;20034;-84
2023/01/20 08:45:13;;;;;;;13.80;8.32;;;;;;;15.25;69.81;100830.13;4973723;28;20417;-84
2023/01/20 08:47:43;;;;;;;13.35;8.30;;;;;;;15.53;69.30;100873.22;4956299;28;20027;-83
2023/01/20 08:50:12;;;;;;;14.63;8.80;;;;;;;15.48;69.50;100873.03;4956123;28;20038;-83
2023/01/20 08:52:38;;;;;;;14.30;8.15;;;;;;;15.47;69.50;100850.19;4956217;28;20035;-84
2023/01/20 08:55:04;;;;;;;13.85;8.70;;;;;;;15.56;69.83;100868.94;4939972;28;20038;-85
2023/01/20 08:57:29;;;;;;;16.42;9.05;;;;;;;15.43;69.81;100835.13;4955372;28;20519;-84
2023/01/20 08:59:55;;;;;;;13.75;8.10;;;;;;;15.49;69.89;100853.75;4973485;28;20030;-85
2023/01/20 09:02:23;;;;;;;11.80;8.57;;;;;;;15.28;69.79;100814.44;4972907;28;20493;-84
2023/01/20 09:04:49;;;;;;;12.35;9.00;;;;;;;15.40;69.34;100843.81;4940035;28;20436;-85
2023/01/20 09:07:16;;;;;;;12.95;8.70;;;;;;;15.59;69.66;100860.25;4955926;28;20022;-84
2023/01/20 09:09:42;;;;;;;16.27;8.40;;;;;;;15.62;69.51;100858.66;4963446;28;20097;-84
2023/01/20 09:12:08;;;;;;;11.88;8.43;;;;;;;15.33;69.75;100794.47;4951198;28;20039;-84
2023/01/20 09:14:34;;;;;;;11.27;8.38;;;;;;;15.37;69.92;100809.50;4966704;28;20043;-84
2023/01/20 09:17:01;;;;;;;13.90;7.75;;;;;;;15.53;69.94;100829.34;4940292;28;20028;-84
2023/01/20 09:19:28;;;;;;;12.90;8.90;;;;;;;15.24;69.56;100773.09;4949867;28;20405;-84
2023/01/20 09:21:53;;;;;;;14.63;9.05;;;;;;;15.32;69.91;100787.38;4952252;28;20712;-84
2023/01/20 09:24:19;;;;;;;13.90;9.32;;;;;;;15.60;70.04;100834.00;4946948;29;20039;-85
2023/01/20 09:26:46;;;;;;;12.55;8.60;;;;;;;15.23;69.68;100774.81;4940902;28;20531;-85
2023/01/20 09:29:14;;;;;;;15.18;8.98;;;;;;;15.56;69.90;100831.22;4943709;28;20024;-85
2023/01/20 09:31:50;;;;;;;13.27;8.63;;;;;;;15.55;70.00;100819.78;4934810;29;20031;-85
2023/01/20 09:34:20;;;;;;;12.52;8.90;;;;;;;15.55;69.67;100817.13;4946715;28;20489;-87
2023/01/20 09:46:06;;;;;;;13.48;9.32;;;;;;;15.52;69.57;100782.84;4934411;28;20083;-86
2023/01/20 09:54:46;;;;;;;14.02;10.07;;;;;;;15.50;69.17;100773.09;4953300;28;20463;-87
2023/01/20 09:57:12;;;;;;;15.80;10.52;;;;;;;15.55;68.24;100764.50;4943066;28;20096;-86
2023/01/20 09:59:43;;;;;;;15.70;10.25;;;;;;;15.39;69.04;100762.22;4937660;29;20051;-86
2023/01/20 10:02:17;;;;;;;17.10;10.02;;;;;;;15.60;68.51;100762.00;4940998;28;20056;-86
2023/01/20 10:04:46;;;;;;;17.10;11.43;;;;;;;15.56;68.29;100758.41;4945948;28;20143;-86
2023/01/20 10:07:15;;;;;;;15.52;10.38;;;;;;;15.60;68.60;100757.66;4944308;28;20019;-87
2023/01/20 10:10:09;;;;;;;14.90;10.05;;;;;;;15.54;68.82;100759.22;4933747;29;20036;-87
2023/01/20 10:13:10;;;;;;;15.20;10.60;;;;;;;15.40;69.11;100732.41;4940421;28;20101;-86
2023/01/20 10:15:37;;;;;;;14.02;10.45;;;;;;;15.55;69.54;100753.97;4941328;28;20437;-86
2023/01/20 10:18:13;;;;;;;15.38;10.55;;;;;;;15.26;69.42;100706.53;4950656;28;20019;-86
2023/01/20 10:21:11;;;;;;;15.45;10.18;;;;;;;15.58;69.13;100745.31;4964909;28;20035;-86
2023/01/20 10:23:41;;;;;;;14.82;10.43;;;;;;;15.58;69.50;100732.16;4966576;28;20031;-87
2023/01/20 10:26:18;;;;;;;16.25;10.52;;;;;;;15.56;68.80;100734.72;4967811;28;20489;-85
2023/01/20 10:28:50;;;;;;;16.02;10.75;;;;;;;15.37;69.45;100691.09;4960087;28;20023;-86
2023/01/20 10:31:22;;;;;;;14.10;10.32;;;;;;;15.46;68.79;100704.56;4967127;28;20405;-86
2023/01/20 10:33:49;;;;;;;18.75;10.55;;;;;;;15.51;68.16;100714.34;4955715;28;20031;-85
2023/01/20 10:36:22;;;;;;;16.23;10.85;;;;;;;15.52;68.57;100700.34;4939460;28;20520;-85
2023/01/20 10:39:08;;;;;;;13.80;10.18;;;;;;;15.54;68.38;100694.28;4946720;28;20508;-84
2023/01/20 10:41:44;;;;;;;13.02;9.70;;;;;;;15.51;68.45;100691.53;4964164;28;20414;-84
2023/01/20 10:44:12;;;;;;;18.90;9.77;;;;;;;15.60;69.17;100683.97;4949216;28;20029;-85
2023/01/20 10:46:50;;;;;;;17.65;9.95;;;;;;;15.53;69.28;100681.06;4949945;28;20031;-84
2023/01/20 10:50:01;;;;;;;20.30;10.38;;;;;;;15.42;68.30;100678.97;4967159;28;20509;-87
2023/01/20 10:52:57;;;;;;;16.90;9.35;;;;;;;15.40;68.96;100672.78;4937316;28;20103;-86
2023/01/20 10:55:50;;;;;;;21.08;9.93;;;;;;;15.41;68.94;100671.94;4951674;28;20043;-86
2023/01/20 10:58:31;;;;;;;20.73;9.73;;;;;;;15.40;69.47;100649.09;4951039;28;20493;-86
2023/01/20 11:01:01;;;;;;;17.58;10.02;;;;;;;15.36;69.66;100633.16;4950792;28;20027;-86
2023/01/20 11:03:31;;;;;;;19.25;10.70;;;;;;;15.43;69.41;100643.03;4959781;28;20038;-86
2023/01/20 11:05:57;;;;;;;20.25;10.55;;;;;;;15.36;69.88;100622.63;4934640;29;20023;-86
2023/01/20 11:08:27;;;;;;;15.10;9.82;;;;;;;15.41;69.95;100629.84;4961619;28;20062;-86
2023/01/20 11:13:58;;;;;;;15.70;9.90;;;;;;;15.31;70.35;100617.22;4952107;28;20066;-86
2023/01/20 11:16:27;;;;;;;17.15;10.32;;;;;;;15.07;70.34;100575.25;4949888;28;20027;-86
2023/01/20 11:18:57;;;;;;;14.55;9.18;;;;;;;15.27;70.28;100616.22;4953662;28;20110;-86
2023/01/20 11:21:24;;;;;;;20.40;9.90;;;;;;;15.23;70.34;100605.56;4967832;28;20074;-86
2023/01/20 11:23:54;;;;;;;14.93;9.60;;;;;;;15.35;69.97;100626.13;4950017;28;20085;-87
2023/01/20 11:26:46;;;;;;;17.13;9.02;;;;;;;15.25;70.46;100603.88;4955886;28;20114;-86
2023/01/20 11:29:12;;;;;;;19.23;9.52;;;;;;;15.38;70.48;100613.06;4936891;28;20146;-86
2023/01/20 11:31:44;;;;;;;16.05;9.73;;;;;;;15.31;70.61;100603.19;4951994;28;20504;-86
2023/01/20 11:34:21;;;;;;;15.20;9.80;;;;;;;15.23;70.52;100592.41;4948496;28;20043;-87
2023/01/20 11:36:48;;;;;;;17.80;9.05;;;;;;;15.39;70.35;100622.75;4935859;28;20041;-87
2023/01/20 11:39:29;;;;;;;15.45;9.50;;;;;;;15.40;70.54;100625.41;4953043;28;20517;-87
2023/01/20 11:42:19;;;;;;;15.43;9.25;;;;;;;15.38;70.65;100620.94;4953980;28;20059;-87
2023/01/20 11:45:01;;;;;;;12.02;9.10;;;;;;;15.21;70.47;100596.72;4948266;28;20036;-87
2023/01/20 11:47:29;;;;;;;27.13;9.73;;;;;;;15.38;70.92;100611.31;4951054;28;20086;-87
2023/01/20 11:50:04;;;;;;;15.13;9.63;;;;;;;15.38;70.18;100616.56;4951306;28;20039;-87